createdAt,value
2019-05-30T00:00:16.982Z,28.66
2019-05-30T00:01:11.269Z,27.57
2019-05-30T00:02:10.256Z,27.35
2019-05-30T00:03:10.239Z,21.97
2019-05-30T00:04:10.234Z,27.39
2019-05-30T00:05:10.210Z,24.20
2019-05-30T00:06:10.203Z,29.43
2019-05-30T00:07:11.306Z,32.74
2019-05-30T00:08:10.180Z,28.62
2019-05-30T00:09:10.189Z,29.30
2019-05-30T00:10:10.155Z,25.68
2019-05-30T00:11:10.154Z,24.13
2019-05-30T00:12:10.136Z,25.86
2019-05-30T00:13:10.122Z,28.00
2019-05-30T00:14:10.128Z,27.00
2019-05-30T00:15:10.118Z,31.21
2019-05-30T00:16:10.091Z,23.72
2019-05-30T00:17:10.075Z,32.70
2019-05-30T00:18:10.059Z,29.45
2019-05-30T00:19:10.058Z,27.72
2019-05-30T00:20:10.049Z,32.25
2019-05-30T00:21:10.055Z,30.80
2019-05-30T00:22:10.020Z,31.16
2019-05-30T00:23:11.195Z,31.16
2019-05-30T00:24:10.123Z,27.57
2019-05-30T00:25:09.988Z,34.82
2019-05-30T00:26:10.014Z,36.10
2019-05-30T00:27:09.965Z,34.16
2019-05-30T00:28:09.957Z,36.46
2019-05-30T00:29:09.936Z,30.88
2019-05-30T00:30:23.960Z,28.88
2019-05-30T00:31:10.913Z,30.81
2019-05-30T00:32:09.935Z,31.20
2019-05-30T00:33:09.895Z,32.20
2019-05-30T00:34:09.880Z,34.23
2019-05-30T00:35:09.866Z,35.46
2019-05-30T00:36:09.860Z,37.51
2019-05-30T00:37:09.851Z,31.40
2019-05-30T00:38:09.838Z,28.04
2019-05-30T00:39:09.822Z,29.53
2019-05-30T00:40:09.826Z,36.59
2019-05-30T00:41:09.820Z,30.05
2019-05-30T00:42:09.824Z,30.62
2019-05-30T00:43:09.798Z,34.23
2019-05-30T00:44:09.766Z,33.29
2019-05-30T00:45:20.412Z,34.08
2019-05-30T00:46:10.766Z,29.82
2019-05-30T00:47:09.748Z,32.26
2019-05-30T00:48:09.739Z,34.30
2019-05-30T00:49:09.710Z,27.24
2019-05-30T00:50:09.698Z,33.17
2019-05-30T00:51:09.691Z,29.44
2019-05-30T00:52:09.724Z,27.71
2019-05-30T00:53:09.681Z,29.31
2019-05-30T00:54:09.685Z,30.89
2019-05-30T00:55:09.648Z,34.57
2019-05-30T00:56:09.624Z,31.56
2019-05-30T00:57:09.620Z,28.47
2019-05-30T00:58:09.620Z,27.66
2019-05-30T00:59:09.591Z,27.71
2019-05-30T01:00:09.584Z,31.72
2019-05-30T01:01:09.579Z,29.89
2019-05-30T01:02:09.560Z,32.21
2019-05-30T01:03:09.758Z,35.17
2019-05-30T01:04:09.560Z,28.58
2019-05-30T01:05:09.547Z,32.07
2019-05-30T01:06:09.516Z,36.63
2019-05-30T01:07:09.506Z,32.35
2019-05-30T01:08:09.496Z,32.13
2019-05-30T01:09:09.521Z,35.80
2019-05-30T01:10:09.472Z,34.18
2019-05-30T01:11:09.463Z,37.52
2019-05-30T01:12:09.447Z,36.18
2019-05-30T01:13:09.460Z,35.22
2019-05-30T01:14:09.427Z,32.56
2019-05-30T01:15:09.436Z,34.47
2019-05-30T01:16:09.412Z,33.23
2019-05-30T01:17:09.389Z,37.82
2019-05-30T01:18:09.376Z,35.57
2019-05-30T01:19:09.378Z,39.89
2019-05-30T01:20:09.355Z,37.47
2019-05-30T01:21:09.350Z,34.12
2019-05-30T01:22:09.356Z,34.56
2019-05-30T01:23:09.319Z,37.40
2019-05-30T01:24:09.313Z,37.29
2019-05-30T01:25:09.304Z,31.85
2019-05-30T01:26:09.292Z,33.74
2019-05-30T01:27:09.304Z,31.33
2019-05-30T01:28:09.267Z,33.73
2019-05-30T01:29:09.255Z,31.30
2019-05-30T01:30:09.258Z,33.82
2019-05-30T01:31:11.457Z,34.01
2019-05-30T01:32:09.224Z,33.24
2019-05-30T01:33:09.223Z,30.21
2019-05-30T01:34:09.196Z,32.52
2019-05-30T01:35:09.184Z,35.22
2019-05-30T01:36:09.176Z,36.80
2019-05-30T01:37:09.167Z,36.54
2019-05-30T01:38:09.170Z,35.66
2019-05-30T01:39:09.138Z,36.64
2019-05-30T01:40:09.201Z,35.90
2019-05-30T01:41:09.123Z,36.00
2019-05-30T01:42:09.105Z,36.64
2019-05-30T01:43:09.109Z,38.03
2019-05-30T01:44:09.095Z,39.06
2019-05-30T01:45:09.112Z,37.54
2019-05-30T01:46:09.062Z,36.07
2019-05-30T01:47:09.071Z,36.19
2019-05-30T01:48:09.040Z,35.63
2019-05-30T01:49:09.038Z,34.48
2019-05-30T01:50:09.029Z,31.31
2019-05-30T01:51:09.052Z,37.43
2019-05-30T01:52:08.993Z,33.47
2019-05-30T01:53:09.013Z,40.46
2019-05-30T01:54:09.074Z,33.42
2019-05-30T01:55:09.222Z,36.90
2019-05-30T01:56:09.044Z,36.03
2019-05-30T01:57:08.938Z,30.83
2019-05-30T01:58:09.183Z,36.02
2019-05-30T01:59:09.114Z,40.18
2019-05-30T02:00:19.930Z,34.21
2019-05-30T02:01:22.617Z,36.63
2019-05-30T02:02:09.905Z,40.07
2019-05-30T02:03:09.519Z,35.40
2019-05-30T02:04:09.492Z,29.87
2019-05-30T02:05:09.474Z,36.17
2019-05-30T02:06:09.400Z,35.78
2019-05-30T02:07:09.409Z,35.88
2019-05-30T02:08:10.074Z,32.43
2019-05-30T02:09:10.335Z,32.27
2019-05-30T02:10:10.103Z,29.85
2019-05-30T02:11:09.551Z,38.31
2019-05-30T02:12:09.602Z,34.81
2019-05-30T02:13:09.820Z,37.53
2019-05-30T02:14:09.906Z,33.96
2019-05-30T02:15:10.051Z,32.24
2019-05-30T02:16:09.966Z,37.02
2019-05-30T02:17:10.033Z,33.83
2019-05-30T02:18:09.895Z,36.45
2019-05-30T02:19:10.412Z,34.00
2019-05-30T02:20:09.991Z,38.23
2019-05-30T02:21:09.947Z,36.12
2019-05-30T02:22:09.857Z,28.62
2019-05-30T02:23:09.936Z,34.27
2019-05-30T02:24:08.680Z,34.16
2019-05-30T02:25:08.627Z,34.32
2019-05-30T02:26:08.615Z,34.47
2019-05-30T02:27:08.631Z,36.48
2019-05-30T02:28:08.601Z,41.10
2019-05-30T02:29:08.599Z,33.10
2019-05-30T02:30:11.640Z,36.21
2019-05-30T02:31:11.949Z,33.64
2019-05-30T02:32:09.226Z,35.07
2019-05-30T02:33:10.574Z,40.04
2019-05-30T02:34:10.142Z,39.80
2019-05-30T02:35:10.524Z,40.95
2019-05-30T02:36:10.626Z,34.49
2019-05-30T02:37:10.316Z,33.27
2019-05-30T02:38:11.236Z,37.76
2019-05-30T02:39:09.878Z,38.31
2019-05-30T02:40:13.618Z,38.34
2019-05-30T02:41:10.091Z,34.19
2019-05-30T02:42:09.572Z,38.25
2019-05-30T02:43:11.501Z,38.37
2019-05-30T02:44:10.242Z,41.63
2019-05-30T02:45:11.794Z,37.07
2019-05-30T02:46:09.987Z,37.82
2019-05-30T02:47:09.599Z,35.44
2019-05-30T02:48:10.032Z,37.68
2019-05-30T02:49:09.582Z,40.59
2019-05-30T02:50:10.706Z,41.17
2019-05-30T02:51:10.116Z,35.47
2019-05-30T02:52:08.611Z,39.65
2019-05-30T02:53:10.556Z,38.58
2019-05-30T02:54:09.412Z,36.21
2019-05-30T02:55:10.291Z,37.50
2019-05-30T02:56:09.899Z,34.21
2019-05-30T02:57:10.127Z,33.94
2019-05-30T02:58:10.249Z,37.35
2019-05-30T02:59:09.299Z,40.97
2019-05-30T03:00:12.723Z,40.82
2019-05-30T03:01:11.338Z,41.87
2019-05-30T03:02:12.348Z,40.44
2019-05-30T03:03:11.597Z,33.79
2019-05-30T03:04:09.882Z,33.83
2019-05-30T03:05:11.454Z,38.37
2019-05-30T03:06:09.172Z,41.50
2019-05-30T03:07:09.028Z,39.75
2019-05-30T03:08:10.933Z,39.38
2019-05-30T03:09:09.132Z,35.80
2019-05-30T03:10:11.658Z,38.99
2019-05-30T03:11:10.794Z,39.74
2019-05-30T03:12:09.099Z,39.69
2019-05-30T03:13:08.291Z,37.74
2019-05-30T03:14:12.106Z,40.35
2019-05-30T03:15:12.051Z,37.11
2019-05-30T03:16:09.291Z,39.38
2019-05-30T03:17:10.210Z,40.85
2019-05-30T03:18:10.345Z,40.63
2019-05-30T03:19:08.667Z,38.07
2019-05-30T03:20:14.734Z,39.46
2019-05-30T03:21:12.329Z,34.30
2019-05-30T03:22:09.517Z,38.48
2019-05-30T03:23:09.943Z,41.81
2019-05-30T03:24:11.181Z,40.16
2019-05-30T03:25:12.476Z,39.78
2019-05-30T03:26:10.827Z,38.55
2019-05-30T03:27:09.959Z,40.36
2019-05-30T03:28:09.049Z,40.41
2019-05-30T03:29:09.976Z,41.44
2019-05-30T03:30:16.114Z,37.56
2019-05-30T03:31:20.387Z,43.18
2019-05-30T03:32:50.507Z,43.95
2019-05-30T03:33:24.340Z,41.40
2019-05-30T03:34:16.986Z,43.04
2019-05-30T03:35:18.996Z,39.83
2019-05-30T03:36:18.084Z,42.34
2019-05-30T03:37:17.620Z,41.02
2019-05-30T03:38:10.634Z,42.33
2019-05-30T03:39:09.978Z,44.21
2019-05-30T03:40:07.793Z,40.49
2019-05-30T03:41:11.296Z,42.75
2019-05-30T03:42:09.078Z,42.88
2019-05-30T03:43:09.171Z,42.03
2019-05-30T03:44:08.921Z,44.61
2019-05-30T03:45:10.663Z,44.31
2019-05-30T03:46:08.741Z,44.23
2019-05-30T03:47:08.561Z,43.62
2019-05-30T03:48:09.879Z,42.23
2019-05-30T03:49:08.667Z,43.04
2019-05-30T03:50:09.795Z,43.97
2019-05-30T03:51:09.351Z,44.43
2019-05-30T03:52:09.932Z,43.90
2019-05-30T03:53:11.058Z,44.59
2019-05-30T03:54:09.889Z,45.49
2019-05-30T03:55:09.438Z,45.18
2019-05-30T03:56:09.208Z,47.55
2019-05-30T03:57:08.980Z,48.50
2019-05-30T03:58:08.122Z,48.15
2019-05-30T03:59:08.076Z,47.78
2019-05-30T04:00:09.497Z,48.73
2019-05-30T04:01:08.075Z,49.54
2019-05-30T04:02:09.492Z,48.24
2019-05-30T04:03:09.328Z,50.42
2019-05-30T04:04:09.175Z,50.18
2019-05-30T04:05:09.125Z,50.13
2019-05-30T04:06:10.166Z,51.93
2019-05-30T04:07:09.071Z,50.58
2019-05-30T04:08:09.425Z,50.60
2019-05-30T04:09:09.444Z,51.86
2019-05-30T04:10:08.973Z,52.97
2019-05-30T04:11:09.385Z,52.06
2019-05-30T04:12:09.598Z,52.39
2019-05-30T04:13:07.416Z,53.63
2019-05-30T04:14:08.893Z,53.91
2019-05-30T04:15:07.965Z,52.44
2019-05-30T04:16:08.635Z,52.63
2019-05-30T04:17:08.385Z,54.93
2019-05-30T04:18:08.994Z,53.10
2019-05-30T04:19:08.030Z,51.82
2019-05-30T04:20:09.372Z,53.34
2019-05-30T04:21:08.546Z,52.64
2019-05-30T04:22:07.806Z,52.66
2019-05-30T04:23:08.558Z,52.70
2019-05-30T04:24:07.619Z,53.13
2019-05-30T04:25:08.596Z,53.01
2019-05-30T04:26:07.471Z,51.88
2019-05-30T04:27:07.977Z,54.43
2019-05-30T04:28:07.832Z,54.19
2019-05-30T04:29:07.999Z,55.01
2019-05-30T04:30:09.859Z,52.57
2019-05-30T04:31:08.065Z,55.50
2019-05-30T04:32:08.437Z,55.36
2019-05-30T04:33:22.489Z,56.60
2019-05-30T04:34:08.399Z,56.66
2019-05-30T04:35:08.049Z,56.98
2019-05-30T04:36:08.393Z,55.96
2019-05-30T04:37:08.210Z,54.43
2019-05-30T04:38:08.567Z,54.65
2019-05-30T04:39:08.626Z,56.33
2019-05-30T04:40:08.450Z,56.29
2019-05-30T04:41:08.760Z,55.77
2019-05-30T04:42:07.085Z,55.41
2019-05-30T04:43:07.081Z,55.47
2019-05-30T04:44:07.097Z,56.28
2019-05-30T04:45:07.069Z,54.08
2019-05-30T04:46:07.046Z,55.61
2019-05-30T04:47:07.033Z,55.95
2019-05-30T04:48:07.030Z,56.40
2019-05-30T04:49:07.019Z,56.94
2019-05-30T04:50:07.004Z,57.79
2019-05-30T04:51:07.010Z,57.41
2019-05-30T04:52:11.296Z,59.99
2019-05-30T04:53:07.970Z,58.91
2019-05-30T04:54:06.959Z,59.34
2019-05-30T04:55:06.940Z,59.92
2019-05-30T04:56:06.929Z,58.76
2019-05-30T04:57:06.911Z,61.97
2019-05-30T04:58:06.999Z,62.45
2019-05-30T04:59:06.897Z,63.75
2019-05-30T05:00:06.893Z,63.89
2019-05-30T05:01:06.871Z,65.40
2019-05-30T05:02:06.858Z,63.58
2019-05-30T05:03:06.871Z,65.65
2019-05-30T05:04:06.843Z,65.52
2019-05-30T05:05:06.842Z,63.36
2019-05-30T05:06:06.836Z,66.42
2019-05-30T05:07:06.807Z,67.37
2019-05-30T05:08:06.804Z,68.42
2019-05-30T05:09:06.804Z,67.48
2019-05-30T05:10:06.774Z,68.99
2019-05-30T05:11:06.761Z,69.44
2019-05-30T05:12:06.768Z,67.40
2019-05-30T05:13:06.745Z,67.60
2019-05-30T05:14:06.747Z,68.00
2019-05-30T05:15:06.723Z,67.68
2019-05-30T05:16:21.991Z,70.99
2019-05-30T05:17:07.738Z,69.40
2019-05-30T05:18:06.684Z,70.16
2019-05-30T05:19:06.671Z,70.62
2019-05-30T05:20:06.657Z,68.42
2019-05-30T05:21:06.649Z,67.64
2019-05-30T05:22:06.640Z,65.66
2019-05-30T05:23:06.645Z,65.22
2019-05-30T05:24:06.619Z,64.72
2019-05-30T05:25:06.605Z,63.88
2019-05-30T05:26:06.591Z,63.64
2019-05-30T05:27:09.760Z,60.22
2019-05-30T05:28:06.576Z,64.14
2019-05-30T05:29:06.561Z,66.86
2019-05-30T05:30:06.605Z,60.25
2019-05-30T05:31:06.537Z,59.52
2019-05-30T05:32:06.526Z,59.81
2019-05-30T05:33:06.514Z,59.71
2019-05-30T05:34:06.519Z,58.08
2019-05-30T05:35:06.491Z,58.62
2019-05-30T05:36:06.485Z,58.33
2019-05-30T05:37:06.491Z,58.72
2019-05-30T05:38:06.464Z,58.42
2019-05-30T05:39:06.456Z,59.49
2019-05-30T05:40:06.446Z,57.58
2019-05-30T05:41:06.445Z,56.19
2019-05-30T05:42:06.415Z,55.80
2019-05-30T05:43:06.427Z,54.96
2019-05-30T05:44:06.393Z,50.93
2019-05-30T05:45:06.405Z,50.01
2019-05-30T05:46:06.377Z,52.05
2019-05-30T05:47:06.365Z,52.08
2019-05-30T05:48:06.430Z,50.93
2019-05-30T05:49:06.341Z,48.08
2019-05-30T05:50:06.340Z,43.60
2019-05-30T05:51:06.327Z,44.89
2019-05-30T05:52:06.362Z,41.19
2019-05-30T05:53:06.303Z,40.53
2019-05-30T05:54:06.327Z,42.99
2019-05-30T05:55:06.269Z,38.45
2019-05-30T05:56:06.261Z,38.03
2019-05-30T05:57:06.264Z,35.38
2019-05-30T05:58:06.253Z,36.03
2019-05-30T05:59:06.226Z,31.27
2019-05-30T06:00:06.219Z,33.24
2019-05-30T06:01:06.206Z,34.05
2019-05-30T06:02:06.319Z,31.98
2019-05-30T06:03:06.183Z,33.40
2019-05-30T06:04:12.978Z,29.03
2019-05-30T06:05:07.163Z,29.08
2019-05-30T06:06:06.203Z,32.37
2019-05-30T06:07:06.148Z,33.44
2019-05-30T06:08:06.148Z,34.10
2019-05-30T06:09:06.122Z,31.52
2019-05-30T06:10:06.099Z,30.65
2019-05-30T06:11:06.097Z,30.93
2019-05-30T06:12:06.077Z,29.57
2019-05-30T06:13:06.079Z,21.45
2019-05-30T06:14:06.063Z,31.16
2019-05-30T06:15:06.234Z,28.92
2019-05-30T06:16:06.046Z,28.84
2019-05-30T06:17:06.027Z,29.44
2019-05-30T06:18:06.012Z,28.47
2019-05-30T06:19:06.017Z,27.77
2019-05-30T06:20:05.993Z,24.76
2019-05-30T06:21:05.991Z,26.74
2019-05-30T06:22:05.975Z,28.21
2019-05-30T06:23:05.954Z,25.32
2019-05-30T06:24:05.966Z,26.86
2019-05-30T06:25:05.962Z,25.03
2019-05-30T06:26:05.933Z,25.60
2019-05-30T06:27:05.919Z,28.21
2019-05-30T06:28:05.911Z,27.71
2019-05-30T06:29:05.891Z,27.06
2019-05-30T06:30:05.883Z,23.64
2019-05-30T06:31:05.867Z,25.89
2019-05-30T06:32:05.859Z,25.01
2019-05-30T06:33:05.843Z,25.75
2019-05-30T06:34:05.842Z,24.40
2019-05-30T06:35:05.828Z,24.12
2019-05-30T06:36:05.827Z,26.79
2019-05-30T06:37:05.809Z,25.13
2019-05-30T06:38:05.794Z,26.31
2019-05-30T06:39:05.822Z,27.66
2019-05-30T06:40:05.775Z,17.01
2019-05-30T06:41:05.766Z,24.90
2019-05-30T06:42:05.743Z,26.31
2019-05-30T06:43:05.730Z,27.00
2019-05-30T06:44:05.942Z,29.12
2019-05-30T06:45:05.707Z,28.56
2019-05-30T06:46:05.711Z,26.10
2019-05-30T06:47:05.709Z,27.49
2019-05-30T06:48:05.673Z,26.60
2019-05-30T06:49:05.666Z,26.56
2019-05-30T06:50:05.664Z,25.84
2019-05-30T06:51:05.647Z,24.20
2019-05-30T06:52:05.684Z,26.10
2019-05-30T06:53:05.621Z,27.03
2019-05-30T06:54:05.625Z,24.50
2019-05-30T06:55:05.598Z,27.04
2019-05-30T06:56:05.654Z,23.69
2019-05-30T06:57:05.614Z,28.56
2019-05-30T06:58:05.593Z,29.71
2019-05-30T06:59:05.584Z,29.58
2019-05-30T07:00:05.543Z,28.05
2019-05-30T07:01:05.550Z,26.00
2019-05-30T07:02:05.518Z,27.80
2019-05-30T07:03:05.669Z,26.30
2019-05-30T07:04:05.798Z,30.24
2019-05-30T07:05:06.200Z,30.32
2019-05-30T07:06:05.951Z,29.39
2019-05-30T07:07:06.284Z,26.20
2019-05-30T07:08:05.452Z,28.68
2019-05-30T07:09:05.478Z,26.69
2019-05-30T07:10:05.427Z,23.95
2019-05-30T07:11:05.429Z,27.69
2019-05-30T07:12:05.414Z,29.57
2019-05-30T07:13:05.393Z,27.91
2019-05-30T07:14:05.377Z,25.63
2019-05-30T07:15:05.392Z,27.07
2019-05-30T07:16:05.356Z,27.40
2019-05-30T07:17:05.353Z,27.16
2019-05-30T07:18:05.367Z,27.37
2019-05-30T07:19:05.328Z,29.17
2019-05-30T07:20:05.312Z,24.51
2019-05-30T07:21:05.303Z,26.26
2019-05-30T07:22:05.288Z,26.36
2019-05-30T07:23:05.281Z,26.48
2019-05-30T07:24:05.275Z,25.60
2019-05-30T07:25:05.273Z,21.24
2019-05-30T07:26:05.267Z,22.76
2019-05-30T07:27:05.237Z,29.23
2019-05-30T07:28:05.223Z,24.69
2019-05-30T07:29:05.217Z,25.59
2019-05-30T07:30:05.241Z,29.67
2019-05-30T07:31:05.190Z,27.16
2019-05-30T07:32:05.179Z,27.81
2019-05-30T07:33:05.167Z,26.61
2019-05-30T07:34:05.157Z,24.29
2019-05-30T07:35:07.219Z,25.54
2019-05-30T07:36:05.135Z,26.34
2019-05-30T07:37:05.134Z,26.23
2019-05-30T07:38:05.110Z,23.68
2019-05-30T07:39:05.111Z,29.62
2019-05-30T07:40:05.096Z,26.17
2019-05-30T07:41:05.093Z,23.16
2019-05-30T07:42:06.488Z,23.32
2019-05-30T07:43:05.083Z,24.48
2019-05-30T07:44:05.050Z,25.44
2019-05-30T07:45:05.033Z,27.48
2019-05-30T07:46:05.065Z,26.14
2019-05-30T07:47:05.025Z,27.93
2019-05-30T07:48:05.003Z,26.59
2019-05-30T07:49:05.116Z,20.69
2019-05-30T07:50:05.011Z,22.35
2019-05-30T07:51:04.966Z,24.72
2019-05-30T07:52:04.954Z,25.12
2019-05-30T07:53:04.978Z,23.64
2019-05-30T07:54:04.927Z,24.93
2019-05-30T07:55:04.912Z,26.83
2019-05-30T07:56:04.906Z,23.46
2019-05-30T07:57:04.920Z,26.35
2019-05-30T07:58:04.898Z,25.95
2019-05-30T07:59:04.902Z,32.66
2019-05-30T08:00:04.862Z,28.16
2019-05-30T08:01:04.847Z,29.00
2019-05-30T08:02:04.839Z,31.91
2019-05-30T08:03:05.046Z,25.82
2019-05-30T08:04:04.817Z,25.82
2019-05-30T08:05:04.815Z,24.03
2019-05-30T08:06:04.799Z,25.02
2019-05-30T08:07:04.785Z,27.49
2019-05-30T08:08:04.780Z,30.77
2019-05-30T08:09:04.782Z,23.13
2019-05-30T08:10:04.748Z,19.84
2019-05-30T08:11:09.501Z,23.57
2019-05-30T08:12:05.725Z,22.60
2019-05-30T08:13:04.724Z,24.64
2019-05-30T08:14:04.708Z,23.03
2019-05-30T08:15:04.695Z,22.75
2019-05-30T08:16:04.716Z,24.79
2019-05-30T08:17:04.673Z,23.19
2019-05-30T08:18:04.656Z,17.01
2019-05-30T08:19:04.651Z,22.79
2019-05-30T08:20:04.635Z,21.00
2019-05-30T08:21:04.649Z,22.59
2019-05-30T08:22:04.609Z,20.32
2019-05-30T08:23:04.603Z,22.03
2019-05-30T08:24:04.591Z,22.76
2019-05-30T08:25:04.590Z,20.70
2019-05-30T08:26:04.589Z,23.27
2019-05-30T08:27:04.565Z,24.35
2019-05-30T08:28:04.548Z,23.78
2019-05-30T08:29:04.555Z,21.99
2019-05-30T08:30:04.528Z,24.50
2019-05-30T08:31:04.510Z,18.56
2019-05-30T08:32:04.497Z,19.66
2019-05-30T08:33:04.504Z,26.60
2019-05-30T08:34:04.482Z,26.02
2019-05-30T08:35:04.469Z,21.10
2019-05-30T08:36:05.758Z,23.26
2019-05-30T08:37:04.453Z,20.74
2019-05-30T08:38:04.473Z,18.56
2019-05-30T08:39:04.424Z,27.15
2019-05-30T08:40:04.412Z,20.09
2019-05-30T08:41:04.412Z,22.64
2019-05-30T08:42:04.388Z,26.04
2019-05-30T08:43:04.383Z,21.30
2019-05-30T08:44:04.378Z,20.40
2019-05-30T08:45:04.424Z,19.27
2019-05-30T08:46:04.338Z,22.66
2019-05-30T08:47:04.346Z,24.20
2019-05-30T08:48:04.327Z,21.59
2019-05-30T08:49:04.337Z,26.22
2019-05-30T08:50:04.291Z,23.24
2019-05-30T08:51:04.290Z,22.92
2019-05-30T08:52:04.273Z,25.14
2019-05-30T08:53:04.278Z,18.38
2019-05-30T08:54:04.270Z,21.79
2019-05-30T08:55:04.251Z,25.68
2019-05-30T08:56:04.227Z,20.00
2019-05-30T08:57:04.382Z,21.19
2019-05-30T08:58:04.206Z,18.13
2019-05-30T08:59:04.204Z,20.52
2019-05-30T09:00:04.202Z,21.15
2019-05-30T09:01:04.285Z,23.17
2019-05-30T09:02:04.182Z,27.70
2019-05-30T09:03:04.205Z,21.74
2019-05-30T09:04:04.141Z,21.12
2019-05-30T09:05:06.847Z,19.05
2019-05-30T09:06:04.595Z,23.47
2019-05-30T09:07:04.148Z,25.57
2019-05-30T09:08:04.111Z,16.67
2019-05-30T09:09:04.106Z,24.41
2019-05-30T09:10:04.078Z,25.05
2019-05-30T09:11:04.067Z,22.31
2019-05-30T09:12:04.055Z,18.80
2019-05-30T09:13:04.039Z,23.69
2019-05-30T09:14:04.038Z,24.10
2019-05-30T09:15:04.012Z,24.16
2019-05-30T09:16:04.009Z,20.51
2019-05-30T09:17:03.998Z,22.74
2019-05-30T09:18:03.978Z,19.21
2019-05-30T09:19:03.981Z,23.17
2019-05-30T09:20:03.978Z,26.69
2019-05-30T09:21:03.947Z,25.68
2019-05-30T09:22:03.938Z,22.62
2019-05-30T09:23:03.947Z,23.03
2019-05-30T09:24:03.946Z,20.52
2019-05-30T09:25:03.932Z,20.40
2019-05-30T09:26:03.898Z,25.87
2019-05-30T09:27:03.880Z,25.59
2019-05-30T09:28:03.891Z,26.63
2019-05-30T09:29:03.967Z,27.06
2019-05-30T09:30:03.889Z,21.28
2019-05-30T09:31:03.833Z,20.72
2019-05-30T09:32:03.828Z,21.57
2019-05-30T09:33:03.809Z,25.05
2019-05-30T09:34:03.812Z,21.26
2019-05-30T09:35:03.810Z,23.32
2019-05-30T09:36:12.787Z,22.02
2019-05-30T09:37:04.793Z,19.07
2019-05-30T09:38:03.957Z,21.42
2019-05-30T09:39:03.755Z,23.87
2019-05-30T09:40:03.751Z,23.05
2019-05-30T09:41:03.718Z,15.86
2019-05-30T09:42:03.712Z,18.46
2019-05-30T09:43:03.697Z,22.17
2019-05-30T09:44:03.689Z,25.66
2019-05-30T09:45:03.677Z,21.96
2019-05-30T09:46:03.671Z,25.27
2019-05-30T09:47:03.653Z,19.98
2019-05-30T09:48:03.647Z,18.38
2019-05-30T09:49:03.662Z,25.72
2019-05-30T09:50:04.027Z,24.20
2019-05-30T09:51:03.616Z,25.91
2019-05-30T09:52:03.601Z,22.90
2019-05-30T09:53:03.583Z,22.31
2019-05-30T09:54:03.576Z,19.44
2019-05-30T09:55:03.561Z,23.77
2019-05-30T09:56:03.552Z,22.47
2019-05-30T09:57:03.560Z,23.52
2019-05-30T09:58:03.535Z,22.16
2019-05-30T09:59:03.521Z,23.87
2019-05-30T10:00:03.533Z,22.33
2019-05-30T10:01:03.496Z,20.76
2019-05-30T10:02:03.485Z,20.70
2019-05-30T10:03:03.515Z,18.69
2019-05-30T10:04:03.554Z,17.16
2019-05-30T10:05:03.464Z,19.70
2019-05-30T10:06:03.446Z,24.34
2019-05-30T10:07:03.436Z,19.50
2019-05-30T10:08:03.443Z,22.56
2019-05-30T10:09:03.432Z,26.02
2019-05-30T10:10:03.396Z,19.43
2019-05-30T10:11:03.408Z,17.37
2019-05-30T10:12:03.370Z,22.20
2019-05-30T10:13:03.366Z,23.93
2019-05-30T10:14:03.348Z,23.10
2019-05-30T10:15:03.336Z,19.55
2019-05-30T10:16:03.331Z,22.97
2019-05-30T10:17:03.331Z,23.60
2019-05-30T10:18:03.306Z,24.63
2019-05-30T10:19:03.297Z,20.24
2019-05-30T10:20:03.305Z,28.12
2019-05-30T10:21:03.270Z,18.00
2019-05-30T10:22:03.268Z,21.00
2019-05-30T10:23:03.808Z,21.59
2019-05-30T10:24:03.254Z,22.31
2019-05-30T10:25:03.270Z,22.40
2019-05-30T10:26:03.245Z,21.59
2019-05-30T10:27:03.208Z,20.92
2019-05-30T10:28:03.205Z,25.04
2019-05-30T10:29:03.182Z,23.78
2019-05-30T10:30:03.180Z,25.09
2019-05-30T10:31:03.219Z,20.58
2019-05-30T10:32:03.171Z,19.90
2019-05-30T10:33:03.138Z,22.17
2019-05-30T10:34:03.130Z,22.24
2019-05-30T10:35:03.121Z,19.34
2019-05-30T10:36:03.106Z,19.80
2019-05-30T10:37:03.121Z,17.63
2019-05-30T10:38:03.084Z,19.28
2019-05-30T10:39:03.074Z,17.87
2019-05-30T10:40:03.063Z,18.97
2019-05-30T10:41:03.063Z,20.65
2019-05-30T10:42:03.058Z,20.00
2019-05-30T10:43:03.032Z,17.10
2019-05-30T10:44:03.016Z,17.68
2019-05-30T10:45:03.012Z,21.54
2019-05-30T10:46:03.001Z,15.42
2019-05-30T10:47:03.005Z,14.87
2019-05-30T10:48:03.049Z,20.19
2019-05-30T10:49:02.998Z,18.13
2019-05-30T10:50:02.981Z,17.37
2019-05-30T10:51:02.936Z,18.11
2019-05-30T10:52:02.938Z,20.90
2019-05-30T10:53:02.963Z,17.41
2019-05-30T10:54:02.936Z,20.76
2019-05-30T10:55:02.892Z,15.97
2019-05-30T10:56:02.894Z,22.39
2019-05-30T10:57:02.875Z,22.80
2019-05-30T10:58:02.872Z,20.01
2019-05-30T10:59:02.877Z,20.15
2019-05-30T11:00:02.849Z,22.29
2019-05-30T11:01:02.833Z,23.63
2019-05-30T11:02:02.824Z,23.95
2019-05-30T11:03:02.803Z,21.53
2019-05-30T11:04:02.853Z,20.78
2019-05-30T11:05:02.794Z,20.91
2019-05-30T11:06:02.950Z,18.06
2019-05-30T11:07:11.041Z,15.49
2019-05-30T11:08:06.090Z,19.33
2019-05-30T11:09:02.747Z,16.77
2019-05-30T11:10:02.787Z,18.83
2019-05-30T11:11:02.799Z,18.27
2019-05-30T11:12:02.708Z,19.00
2019-05-30T11:13:05.847Z,21.64
2019-05-30T11:14:02.683Z,15.46
2019-05-30T11:15:02.988Z,15.88
2019-05-30T11:16:02.687Z,17.57
2019-05-30T11:17:02.649Z,17.66
2019-05-30T11:18:02.653Z,17.59
2019-05-30T11:19:07.244Z,19.25
2019-05-30T11:20:03.654Z,21.12
2019-05-30T11:21:02.721Z,19.80
2019-05-30T11:22:02.603Z,23.31
2019-05-30T11:23:02.585Z,15.01
2019-05-30T11:24:02.595Z,20.31
2019-05-30T11:25:02.565Z,18.23
2019-05-30T11:26:02.555Z,18.98
2019-05-30T11:27:02.551Z,20.15
2019-05-30T11:28:02.536Z,17.86
2019-05-30T11:29:02.706Z,19.14
2019-05-30T11:30:02.511Z,17.63
2019-05-30T11:31:04.571Z,14.76
2019-05-30T11:32:02.488Z,19.54
2019-05-30T11:33:02.487Z,25.05
2019-05-30T11:34:02.461Z,21.80
2019-05-30T11:35:02.450Z,20.97
2019-05-30T11:36:02.442Z,21.58
2019-05-30T11:37:18.044Z,24.04
2019-05-30T11:38:03.419Z,17.66
2019-05-30T11:39:02.415Z,18.98
2019-05-30T11:40:02.398Z,21.39
2019-05-30T11:41:02.388Z,20.36
2019-05-30T11:42:02.371Z,16.41
2019-05-30T11:43:02.360Z,18.22
2019-05-30T11:44:04.194Z,17.33
2019-05-30T11:45:02.344Z,19.26
2019-05-30T11:46:02.329Z,17.46
2019-05-30T11:47:02.316Z,20.91
2019-05-30T11:48:02.309Z,20.34
2019-05-30T11:49:02.298Z,22.13
2019-05-30T11:50:02.328Z,18.30
2019-05-30T11:51:02.268Z,24.35
2019-05-30T11:52:02.263Z,25.81
2019-05-30T11:53:02.254Z,24.63
2019-05-30T11:54:02.243Z,17.33
2019-05-30T11:55:02.236Z,13.86
2019-05-30T11:56:02.223Z,16.67
2019-05-30T11:57:02.209Z,18.75
2019-05-30T11:58:02.192Z,18.24
2019-05-30T11:59:02.186Z,16.47
2019-05-30T12:00:02.174Z,18.98
2019-05-30T12:01:02.200Z,16.79
2019-05-30T12:02:02.209Z,18.99
2019-05-30T12:03:02.142Z,19.48
2019-05-30T12:04:02.125Z,20.13
2019-05-30T12:05:02.120Z,20.90
2019-05-30T12:06:02.104Z,15.75
2019-05-30T12:07:02.117Z,18.96
2019-05-30T12:08:02.082Z,18.11
2019-05-30T12:09:02.073Z,22.79
2019-05-30T12:10:02.060Z,22.79
2019-05-30T12:11:02.067Z,23.94
2019-05-30T12:12:02.050Z,23.57
2019-05-30T12:13:02.023Z,21.89
2019-05-30T12:14:02.051Z,15.88
2019-05-30T12:15:02.031Z,11.58
2019-05-30T12:16:01.986Z,12.83
2019-05-30T12:17:02.019Z,20.45
2019-05-30T12:18:02.518Z,17.71
2019-05-30T12:19:02.053Z,14.55
2019-05-30T12:20:02.028Z,16.17
2019-05-30T12:21:02.077Z,20.51
2019-05-30T12:22:02.143Z,21.50
2019-05-30T12:23:02.285Z,18.27
2019-05-30T12:24:02.665Z,21.64
2019-05-30T12:25:02.688Z,18.26
2019-05-30T12:26:02.259Z,19.43
2019-05-30T12:27:02.353Z,22.06
2019-05-30T12:28:04.129Z,20.81
2019-05-30T12:29:02.311Z,17.78
2019-05-30T12:30:02.681Z,14.88
2019-05-30T12:31:06.304Z,18.50
2019-05-30T12:32:03.124Z,13.88
2019-05-30T12:33:02.577Z,19.42
2019-05-30T12:34:02.682Z,17.97
2019-05-30T12:35:02.823Z,16.89
2019-05-30T12:36:02.706Z,20.55
2019-05-30T12:37:02.818Z,21.23
2019-05-30T12:38:05.951Z,11.29
2019-05-30T12:39:02.686Z,14.36
2019-05-30T12:40:03.091Z,20.13
2019-05-30T12:41:02.908Z,20.18
2019-05-30T12:42:03.215Z,19.16
2019-05-30T12:43:03.669Z,18.72
2019-05-30T12:44:01.745Z,20.43
2019-05-30T12:45:05.599Z,20.37
2019-05-30T12:46:03.280Z,22.61
2019-05-30T12:47:01.642Z,15.44
2019-05-30T12:48:01.628Z,17.98
2019-05-30T12:49:01.733Z,10.62
2019-05-30T12:50:01.633Z,16.84
2019-05-30T12:51:01.624Z,15.79
2019-05-30T12:52:01.595Z,10.85